sensor_id;sensor_type;location;lat;lon;timestamp;pressure;altitude;pressure_sealevel;temperature;humidity
28456;BME280;15682;56.742;38.866;2023-02-17T00:00:18;100410.0;;;-7.5;91.3
28456;BME280;15682;56.742;38.866;2023-02-17T00:02:19;100410.0;;;-7.4;90.3
28456;BME280;15682;56.742;38.866;2023-02-17T00:04:17;100410.0;;;-7.6;90.3
28456;BME280;15682;56.742;38.866;2023-02-17T00:06:19;100410.0;;;-7.4;91.1
28456;BME280;15682;56.742;38.866;2023-02-17T00:08:17;100410.0;;;-7.6;91.1
28456;BME280;15682;56.742;38.866;2023-02-17T00:10:17;100410.0;;;-7.6;91.1
28456;BME280;15682;56.742;38.866;2023-02-17T00:12:17;100410.0;;;-7.4;90.9
28456;BME280;15682;56.742;38.866;2023-02-17T00:14:17;100410.0;;;-7.4;90.9
28456;BME280;15682;56.742;38.866;2023-02-17T00:16:18;100410.0;;;-7.4;90.9
28456;BME280;15682;56.742;38.866;2023-02-17T00:18:16;100410.0;;;-7.4;90.9
28456;BME280;15682;56.742;38.866;2023-02-17T00:20:16;100410.0;;;-7.4;90.9
28456;BME280;15682;56.742;38.866;2023-02-17T00:22:15;100410.0;;;-7.3;91.1
28456;BME280;15682;56.742;38.866;2023-02-17T00:24:16;100410.0;;;-7.3;91.1
28456;BME280;15682;56.742;38.866;2023-02-17T00:26:19;100410.0;;;-7.3;91.1
28456;BME280;15682;56.742;38.866;2023-02-17T00:28:15;100410.0;;;-7.3;91.1
28456;BME280;15682;56.742;38.866;2023-02-17T00:30:15;100410.0;;;-7.0;91.1
28456;BME280;15682;56.742;38.866;2023-02-17T00:32:14;100410.0;;;-7.1;90.6
28456;BME280;15682;56.742;38.866;2023-02-17T00:34:16;100400.0;;;-7.1;90.6
28456;BME280;15682;56.742;38.866;2023-02-17T00:36:15;100400.0;;;-7.3;91.1
28456;BME280;15682;56.742;38.866;2023-02-17T00:38:14;100400.0;;;-7.1;91.1
28456;BME280;15682;56.742;38.866;2023-02-17T00:40:14;100400.0;;;-7.1;90.2
28456;BME280;15682;56.742;38.866;2023-02-17T00:42:13;100400.0;;;-7.2;90.4
28456;BME280;15682;56.742;38.866;2023-02-17T00:44:15;100400.0;;;-7.2;90.4
28456;BME280;15682;56.742;38.866;2023-02-17T00:46:13;100400.0;;;-7.3;90.4
28456;BME280;15682;56.742;38.866;2023-02-17T00:48:12;100400.0;;;-7.3;90.8
28456;BME280;15682;56.742;38.866;2023-02-17T00:50:12;100400.0;;;-7.3;90.8
28456;BME280;15682;56.742;38.866;2023-02-17T00:52:12;100390.0;;;-7.1;91.1
28456;BME280;15682;56.742;38.866;2023-02-17T00:54:12;100400.0;;;-7.0;91.1
28456;BME280;15682;56.742;38.866;2023-02-17T00:56:12;100400.0;;;-7.0;91.1
28456;BME280;15682;56.742;38.866;2023-02-17T00:58:11;100400.0;;;-7.0;90.6
28456;BME280;15682;56.742;38.866;2023-02-17T01:00:12;100390.0;;;-7.1;90.6
28456;BME280;15682;56.742;38.866;2023-02-17T01:02:11;100390.0;;;-7.1;91.1
28456;BME280;15682;56.742;38.866;2023-02-17T01:04:11;100390.0;;;-7.1;91.1
28456;BME280;15682;56.742;38.866;2023-02-17T01:06:23;100390.0;;;-7.1;91.1
28456;BME280;15682;56.742;38.866;2023-02-17T01:08:10;100390.0;;;-7.0;91.1
28456;BME280;15682;56.742;38.866;2023-02-17T01:10:10;100390.0;;;-7.0;91.1
28456;BME280;15682;56.742;38.866;2023-02-17T01:12:10;100390.0;;;-7.0;90.3
28456;BME280;15682;56.742;38.866;2023-02-17T01:14:11;100390.0;;;-6.8;91.9
28456;BME280;15682;56.742;38.866;2023-02-17T01:16:16;100390.0;;;-6.9;90.3
28456;BME280;15682;56.742;38.866;2023-02-17T01:18:09;100390.0;;;-7.1;90.3
28456;BME280;15682;56.742;38.866;2023-02-17T01:20:09;100390.0;;;-6.9;90.9
28456;BME280;15682;56.742;38.866;2023-02-17T01:22:09;100390.0;;;-6.8;90.5
28456;BME280;15682;56.742;38.866;2023-02-17T01:24:09;100380.0;;;-6.8;90.5
28456;BME280;15682;56.742;38.866;2023-02-17T01:26:13;100380.0;;;-6.8;90.5
28456;BME280;15682;56.742;38.866;2023-02-17T01:28:10;100380.0;;;-6.8;90.8
28456;BME280;15682;56.742;38.866;2023-02-17T01:30:08;100380.0;;;-6.8;90.1
28456;BME280;15682;56.742;38.866;2023-02-17T01:32:07;100380.0;;;-6.9;90.7
28456;BME280;15682;56.742;38.866;2023-02-17T01:34:07;100370.0;;;-6.9;90.7
28456;BME280;15682;56.742;38.866;2023-02-17T01:36:12;100370.0;;;-6.9;90.7
28456;BME280;15682;56.742;38.866;2023-02-17T01:38:07;100370.0;;;-6.9;90.7
28456;BME280;15682;56.742;38.866;2023-02-17T01:40:07;100370.0;;;-6.9;90.0
28456;BME280;15682;56.742;38.866;2023-02-17T01:42:13;100370.0;;;-7.0;90.6
28456;BME280;15682;56.742;38.866;2023-02-17T01:44:11;100370.0;;;-7.0;90.6
28456;BME280;15682;56.742;38.866;2023-02-17T01:46:07;100370.0;;;-7.0;91.6
28456;BME280;15682;56.742;38.866;2023-02-17T01:48:09;100370.0;;;-7.0;91.0
28456;BME280;15682;56.742;38.866;2023-02-17T01:50:06;100370.0;;;-7.0;90.4
28456;BME280;15682;56.742;38.866;2023-02-17T01:52:10;100370.0;;;-7.0;91.0
28456;BME280;15682;56.742;38.866;2023-02-17T01:54:08;100370.0;;;-7.0;91.0
28456;BME280;15682;56.742;38.866;2023-02-17T01:56:05;100370.0;;;-7.0;91.0
28456;BME280;15682;56.742;38.866;2023-02-17T01:58:06;100370.0;;;-7.0;91.0
28456;BME280;15682;56.742;38.866;2023-02-17T02:00:06;100370.0;;;-7.0;91.0
28456;BME280;15682;56.742;38.866;2023-02-17T02:02:04;100370.0;;;-7.0;91.1
28456;BME280;15682;56.742;38.866;2023-02-17T02:04:05;100370.0;;;-7.0;91.1
28456;BME280;15682;56.742;38.866;2023-02-17T02:06:06;100370.0;;;-7.2;91.1
28456;BME280;15682;56.742;38.866;2023-02-17T02:08:04;100370.0;;;-7.0;91.1
28456;BME280;15682;56.742;38.866;2023-02-17T02:10:03;100370.0;;;-7.0;91.1
28456;BME280;15682;56.742;38.866;2023-02-17T02:12:16;100370.0;;;-7.0;91.0
28456;BME280;15682;56.742;38.866;2023-02-17T02:14:04;100370.0;;;-7.0;90.5
28456;BME280;15682;56.742;38.866;2023-02-17T02:16:10;100370.0;;;-7.0;90.5
28456;BME280;15682;56.742;38.866;2023-02-17T02:18:14;100370.0;;;-7.0;90.5
28456;BME280;15682;56.742;38.866;2023-02-17T02:20:30;100370.0;;;-6.9;90.5
28456;BME280;15682;56.742;38.866;2023-02-17T02:22:18;100370.0;;;-7.0;90.3
28456;BME280;15682;56.742;38.866;2023-02-17T02:24:10;100370.0;;;-7.0;90.3
28456;BME280;15682;56.742;38.866;2023-02-17T02:26:16;100370.0;;;-7.0;90.3
28456;BME280;15682;56.742;38.866;2023-02-17T02:28:09;100370.0;;;-7.0;90.3
28456;BME280;15682;56.742;38.866;2023-02-17T02:30:20;100370.0;;;-7.0;90.3
28456;BME280;15682;56.742;38.866;2023-02-17T02:32:17;100370.0;;;-7.0;90.3
28456;BME280;15682;56.742;38.866;2023-02-17T02:34:02;100370.0;;;-7.1;90.3
28456;BME280;15682;56.742;38.866;2023-02-17T02:36:05;100370.0;;;-7.1;91.3
28456;BME280;15682;56.742;38.866;2023-02-17T02:38:03;100370.0;;;-7.1;90.7
28456;BME280;15682;56.742;38.866;2023-02-17T02:40:01;100370.0;;;-7.0;90.7
28456;BME280;15682;56.742;38.866;2023-02-17T02:42:02;100370.0;;;-7.0;90.2
28456;BME280;15682;56.742;38.866;2023-02-17T02:44:01;100370.0;;;-7.0;90.2
28456;BME280;15682;56.742;38.866;2023-02-17T02:45:59;100370.0;;;-7.0;90.2
28456;BME280;15682;56.742;38.866;2023-02-17T02:47:58;100370.0;;;-7.0;90.2
28456;BME280;15682;56.742;38.866;2023-02-17T02:49:58;100370.0;;;-7.0;90.2
28456;BME280;15682;56.742;38.866;2023-02-17T02:52:04;100370.0;;;-7.0;90.3
28456;BME280;15682;56.742;38.866;2023-02-17T02:56:05;100370.0;;;-7.0;90.3
28456;BME280;15682;56.742;38.866;2023-02-17T02:58:02;100370.0;;;-6.8;90.3
28456;BME280;15682;56.742;38.866;2023-02-17T03:00:08;100370.0;;;-6.8;89.7
28456;BME280;15682;56.742;38.866;2023-02-17T03:02:05;100380.0;;;-6.7;89.5
28456;BME280;15682;56.742;38.866;2023-02-17T03:04:05;100380.0;;;-6.7;90.2
28456;BME280;15682;56.742;38.866;2023-02-17T03:06:01;100380.0;;;-6.7;90.2
28456;BME280;15682;56.742;38.866;2023-02-17T03:08:01;100380.0;;;-6.8;90.2
28456;BME280;15682;56.742;38.866;2023-02-17T03:09:58;100380.0;;;-6.8;90.2
28456;BME280;15682;56.742;38.866;2023-02-17T03:11:57;100380.0;;;-6.8;90.0
28456;BME280;15682;56.742;38.866;2023-02-17T03:13:59;100380.0;;;-6.8;90.0
28456;BME280;15682;56.742;38.866;2023-02-17T03:15:56;100380.0;;;-6.8;90.0
28456;BME280;15682;56.742;38.866;2023-02-17T03:17:55;100380.0;;;-6.8;90.0
28456;BME280;15682;56.742;38.866;2023-02-17T03:19:55;100380.0;;;-6.8;90.7
28456;BME280;15682;56.742;38.866;2023-02-17T03:22:00;100380.0;;;-6.9;90.9
28456;BME280;15682;56.742;38.866;2023-02-17T03:23:54;100380.0;;;-6.9;90.2
28456;BME280;15682;56.742;38.866;2023-02-17T03:25:54;100380.0;;;-6.9;90.8
28456;BME280;15682;56.742;38.866;2023-02-17T03:27:54;100380.0;;;-6.9;90.0
28456;BME280;15682;56.742;38.866;2023-02-17T03:29:54;100380.0;;;-7.0;90.0
28456;BME280;15682;56.742;38.866;2023-02-17T03:31:53;100380.0;;;-7.0;90.6
28456;BME280;15682;56.742;38.866;2023-02-17T03:33:53;100380.0;;;-7.0;90.6
28456;BME280;15682;56.742;38.866;2023-02-17T03:35:53;100380.0;;;-7.0;90.6
28456;BME280;15682;56.742;38.866;2023-02-17T03:37:53;100380.0;;;-6.8;90.6
28456;BME280;15682;56.742;38.866;2023-02-17T03:39:52;100380.0;;;-6.9;90.6
28456;BME280;15682;56.742;38.866;2023-02-17T03:41:52;100380.0;;;-6.9;90.5
28456;BME280;15682;56.742;38.866;2023-02-17T03:43:52;100380.0;;;-7.1;90.5
28456;BME280;15682;56.742;38.866;2023-02-17T03:45:52;100380.0;;;-7.1;90.5
28456;BME280;15682;56.742;38.866;2023-02-17T03:47:52;100380.0;;;-7.1;90.5
28456;BME280;15682;56.742;38.866;2023-02-17T03:49:51;100380.0;;;-7.1;91.1
28456;BME280;15682;56.742;38.866;2023-02-17T03:51:51;100370.0;;;-7.1;90.9
28456;BME280;15682;56.742;38.866;2023-02-17T03:53:51;100370.0;;;-7.1;90.9
28456;BME280;15682;56.742;38.866;2023-02-17T03:55:51;100370.0;;;-6.9;90.9
28456;BME280;15682;56.742;38.866;2023-02-17T03:57:51;100370.0;;;-6.8;90.9
28456;BME280;15682;56.742;38.866;2023-02-17T03:59:50;100370.0;;;-6.7;90.3
28456;BME280;15682;56.742;38.866;2023-02-17T04:01:50;100370.0;;;-6.7;89.5
28456;BME280;15682;56.742;38.866;2023-02-17T04:03:50;100370.0;;;-6.7;90.1
28456;BME280;15682;56.742;38.866;2023-02-17T04:05:50;100370.0;;;-6.8;89.0
28456;BME280;15682;56.742;38.866;2023-02-17T04:07:49;100370.0;;;-6.8;89.0
28456;BME280;15682;56.742;38.866;2023-02-17T04:09:49;100370.0;;;-6.7;89.0
28456;BME280;15682;56.742;38.866;2023-02-17T04:11:49;100370.0;;;-6.6;88.9
28456;BME280;15682;56.742;38.866;2023-02-17T04:13:49;100370.0;;;-6.6;88.9
28456;BME280;15682;56.742;38.866;2023-02-17T04:15:49;100370.0;;;-6.6;88.4
28456;BME280;15682;56.742;38.866;2023-02-17T04:17:48;100380.0;;;-6.6;88.4
28456;BME280;15682;56.742;38.866;2023-02-17T04:19:48;100380.0;;;-6.7;88.4
28456;BME280;15682;56.742;38.866;2023-02-17T04:21:48;100380.0;;;-6.6;88.7
28456;BME280;15682;56.742;38.866;2023-02-17T04:23:47;100380.0;;;-6.6;89.3
28456;BME280;15682;56.742;38.866;2023-02-17T04:25:47;100380.0;;;-6.6;89.3
28456;BME280;15682;56.742;38.866;2023-02-17T04:27:47;100380.0;;;-6.6;89.3
28456;BME280;15682;56.742;38.866;2023-02-17T04:29:47;100380.0;;;-6.6;89.3
28456;BME280;15682;56.742;38.866;2023-02-17T04:31:46;100380.0;;;-6.7;89.3
28456;BME280;15682;56.742;38.866;2023-02-17T04:33:46;100380.0;;;-6.7;89.3
28456;BME280;15682;56.742;38.866;2023-02-17T04:35:46;100380.0;;;-6.7;89.3
28456;BME280;15682;56.742;38.866;2023-02-17T04:37:46;100380.0;;;-6.7;89.3
28456;BME280;15682;56.742;38.866;2023-02-17T04:39:45;100380.0;;;-6.7;89.3
28456;BME280;15682;56.742;38.866;2023-02-17T04:41:45;100380.0;;;-6.5;88.8
28456;BME280;15682;56.742;38.866;2023-02-17T04:43:45;100380.0;;;-6.5;88.8
28456;BME280;15682;56.742;38.866;2023-02-17T04:45:45;100390.0;;;-6.5;89.6
28456;BME280;15682;56.742;38.866;2023-02-17T04:47:44;100390.0;;;-6.5;89.6
28456;BME280;15682;56.742;38.866;2023-02-17T04:49:44;100390.0;;;-6.5;88.8
28456;BME280;15682;56.742;38.866;2023-02-17T04:51:44;100390.0;;;-6.5;88.9
28456;BME280;15682;56.742;38.866;2023-02-17T04:53:44;100390.0;;;-6.5;88.9
28456;BME280;15682;56.742;38.866;2023-02-17T04:55:46;100390.0;;;-6.4;88.2
28456;BME280;15682;56.742;38.866;2023-02-17T04:57:43;100390.0;;;-6.7;89.1
28456;BME280;15682;56.742;38.866;2023-02-17T04:59:43;100390.0;;;-6.7;89.1
28456;BME280;15682;56.742;38.866;2023-02-17T05:01:43;100390.0;;;-6.5;89.1
28456;BME280;15682;56.742;38.866;2023-02-17T05:03:43;100390.0;;;-6.4;88.4
28456;BME280;15682;56.742;38.866;2023-02-17T05:05:43;100390.0;;;-6.6;89.2
28456;BME280;15682;56.742;38.866;2023-02-17T05:07:42;100390.0;;;-6.6;89.2
28456;BME280;15682;56.742;38.866;2023-02-17T05:09:42;100390.0;;;-6.6;89.2
28456;BME280;15682;56.742;38.866;2023-02-17T05:11:42;100390.0;;;-6.5;88.9
28456;BME280;15682;56.742;38.866;2023-02-17T05:13:41;100390.0;;;-6.5;88.9
28456;BME280;15682;56.742;38.866;2023-02-17T05:15:42;100390.0;;;-6.5;88.9
28456;BME280;15682;56.742;38.866;2023-02-17T05:17:41;100390.0;;;-6.5;88.9
28456;BME280;15682;56.742;38.866;2023-02-17T05:19:41;100390.0;;;-6.5;88.4
28456;BME280;15682;56.742;38.866;2023-02-17T05:21:40;100390.0;;;-6.4;88.7
28456;BME280;15682;56.742;38.866;2023-02-17T05:23:40;100390.0;;;-6.4;88.7
28456;BME280;15682;56.742;38.866;2023-02-17T05:25:40;100390.0;;;-6.4;88.7
28456;BME280;15682;56.742;38.866;2023-02-17T05:27:40;100390.0;;;-6.5;88.7
28456;BME280;15682;56.742;38.866;2023-02-17T05:29:39;100390.0;;;-6.4;88.7
28456;BME280;15682;56.742;38.866;2023-02-17T05:31:39;100390.0;;;-6.4;89.2
28456;BME280;15682;56.742;38.866;2023-02-17T05:33:39;100390.0;;;-6.5;89.2
28456;BME280;15682;56.742;38.866;2023-02-17T05:35:39;100390.0;;;-6.4;89.2
28456;BME280;15682;56.742;38.866;2023-02-17T05:37:39;100390.0;;;-6.4;89.2
28456;BME280;15682;56.742;38.866;2023-02-17T05:39:39;100390.0;;;-6.4;89.2
28456;BME280;15682;56.742;38.866;2023-02-17T05:41:38;100390.0;;;-6.3;88.2
28456;BME280;15682;56.742;38.866;2023-02-17T05:43:38;100390.0;;;-6.3;88.2
28456;BME280;15682;56.742;38.866;2023-02-17T05:45:38;100390.0;;;-6.3;88.2
28456;BME280;15682;56.742;38.866;2023-02-17T05:47:37;100390.0;;;-6.3;88.2
28456;BME280;15682;56.742;38.866;2023-02-17T05:49:37;100390.0;;;-6.0;87.5
28456;BME280;15682;56.742;38.866;2023-02-17T05:51:37;100390.0;;;-6.0;87.5
28456;BME280;15682;56.742;38.866;2023-02-17T05:53:37;100390.0;;;-6.0;87.5
28456;BME280;15682;56.742;38.866;2023-02-17T05:55:37;100390.0;;;-6.0;88.0
28456;BME280;15682;56.742;38.866;2023-02-17T05:57:36;100390.0;;;-6.0;87.3
28456;BME280;15682;56.742;38.866;2023-02-17T05:59:36;100390.0;;;-5.9;87.3
28456;BME280;15682;56.742;38.866;2023-02-17T06:01:36;100390.0;;;-5.8;87.4
28456;BME280;15682;56.742;38.866;2023-02-17T06:03:36;100390.0;;;-5.8;87.4
28456;BME280;15682;56.742;38.866;2023-02-17T06:05:35;100390.0;;;-5.8;87.4
28456;BME280;15682;56.742;38.866;2023-02-17T06:07:35;100390.0;;;-5.8;86.7
28456;BME280;15682;56.742;38.866;2023-02-17T06:09:35;100390.0;;;-5.9;86.7
28456;BME280;15682;56.742;38.866;2023-02-17T06:11:35;100390.0;;;-5.9;86.7
28456;BME280;15682;56.742;38.866;2023-02-17T06:13:35;100390.0;;;-5.9;87.3
28456;BME280;15682;56.742;38.866;2023-02-17T06:15:35;100390.0;;;-5.8;86.6
28456;BME280;15682;56.742;38.866;2023-02-17T06:17:34;100390.0;;;-5.8;86.6
28456;BME280;15682;56.742;38.866;2023-02-17T06:19:34;100390.0;;;-5.8;86.6
28456;BME280;15682;56.742;38.866;2023-02-17T06:21:35;100390.0;;;-5.6;86.3
28456;BME280;15682;56.742;38.866;2023-02-17T06:23:34;100390.0;;;-5.6;86.3
28456;BME280;15682;56.742;38.866;2023-02-17T06:25:34;100390.0;;;-5.6;85.9
28456;BME280;15682;56.742;38.866;2023-02-17T06:27:33;100390.0;;;-5.5;85.9
28456;BME280;15682;56.742;38.866;2023-02-17T06:29:33;100390.0;;;-5.4;85.9
28456;BME280;15682;56.742;38.866;2023-02-17T06:31:33;100390.0;;;-5.4;85.9
28456;BME280;15682;56.742;38.866;2023-02-17T06:33:33;100390.0;;;-5.4;85.9
28456;BME280;15682;56.742;38.866;2023-02-17T06:35:32;100390.0;;;-5.4;85.9
28456;BME280;15682;56.742;38.866;2023-02-17T06:37:32;100390.0;;;-5.4;85.9
28456;BME280;15682;56.742;38.866;2023-02-17T06:39:32;100390.0;;;-5.2;85.9
28456;BME280;15682;56.742;38.866;2023-02-17T06:41:32;100390.0;;;-5.2;86.3
28456;BME280;15682;56.742;38.866;2023-02-17T06:43:32;100390.0;;;-5.2;86.3
28456;BME280;15682;56.742;38.866;2023-02-17T06:45:32;100390.0;;;-5.2;86.3
28456;BME280;15682;56.742;38.866;2023-02-17T06:47:31;100390.0;;;-5.1;86.3
28456;BME280;15682;56.742;38.866;2023-02-17T06:49:31;100390.0;;;-5.1;85.2
28456;BME280;15682;56.742;38.866;2023-02-17T06:51:31;100390.0;;;-5.1;85.1
28456;BME280;15682;56.742;38.866;2023-02-17T06:53:31;100390.0;;;-5.1;85.1
28456;BME280;15682;56.742;38.866;2023-02-17T06:55:31;100390.0;;;-5.0;85.1
28456;BME280;15682;56.742;38.866;2023-02-17T06:57:30;100390.0;;;-5.0;86.3
28456;BME280;15682;56.742;38.866;2023-02-17T06:59:31;100390.0;;;-5.0;85.7
28456;BME280;15682;56.742;38.866;2023-02-17T07:01:30;100390.0;;;-5.1;85.7
28456;BME280;15682;56.742;38.866;2023-02-17T07:03:31;100390.0;;;-5.1;85.7
28456;BME280;15682;56.742;38.866;2023-02-17T07:05:30;100390.0;;;-5.1;85.7
28456;BME280;15682;56.742;38.866;2023-02-17T07:07:29;100390.0;;;-5.1;86.6
28456;BME280;15682;56.742;38.866;2023-02-17T07:09:29;100390.0;;;-4.9;84.8
28456;BME280;15682;56.742;38.866;2023-02-17T07:11:29;100400.0;;;-4.9;85.4
28456;BME280;15682;56.742;38.866;2023-02-17T07:13:29;100400.0;;;-5.1;85.4
28456;BME280;15682;56.742;38.866;2023-02-17T07:15:29;100400.0;;;-4.8;85.4
28456;BME280;15682;56.742;38.866;2023-02-17T07:17:29;100400.0;;;-4.8;85.9
28456;BME280;15682;56.742;38.866;2023-02-17T07:19:29;100400.0;;;-4.8;85.4
28456;BME280;15682;56.742;38.866;2023-02-17T07:21:28;100400.0;;;-4.7;85.0
28456;BME280;15682;56.742;38.866;2023-02-17T07:23:28;100400.0;;;-4.6;84.5
28456;BME280;15682;56.742;38.866;2023-02-17T07:25:28;100400.0;;;-4.6;84.5
28456;BME280;15682;56.742;38.866;2023-02-17T07:27:28;100400.0;;;-4.4;84.5
28456;BME280;15682;56.742;38.866;2023-02-17T07:29:28;100410.0;;;-4.4;83.2
28456;BME280;15682;56.742;38.866;2023-02-17T07:31:27;100410.0;;;-4.1;83.0
28456;BME280;15682;56.742;38.866;2023-02-17T07:33:28;100410.0;;;-4.1;83.0
28456;BME280;15682;56.742;38.866;2023-02-17T07:35:27;100410.0;;;-3.8;82.1
28456;BME280;15682;56.742;38.866;2023-02-17T07:37:27;100410.0;;;-4.0;82.1
28456;BME280;15682;56.742;38.866;2023-02-17T07:39:27;100410.0;;;-3.8;82.1
28456;BME280;15682;56.742;38.866;2023-02-17T07:41:27;100410.0;;;-4.0;82.0
28456;BME280;15682;56.742;38.866;2023-02-17T07:43:26;100410.0;;;-3.7;82.0
28456;BME280;15682;56.742;38.866;2023-02-17T07:45:26;100410.0;;;-3.5;82.0
28456;BME280;15682;56.742;38.866;2023-02-17T07:47:26;100410.0;;;-3.5;81.5
28456;BME280;15682;56.742;38.866;2023-02-17T07:49:26;100410.0;;;-3.9;82.0
28456;BME280;15682;56.742;38.866;2023-02-17T07:51:26;100410.0;;;-4.3;83.2
28456;BME280;15682;56.742;38.866;2023-02-17T07:53:26;100410.0;;;-4.0;83.2
28456;BME280;15682;56.742;38.866;2023-02-17T07:55:26;100410.0;;;-3.8;81.9
28456;BME280;15682;56.742;38.866;2023-02-17T07:57:25;100410.0;;;-3.7;81.4
28456;BME280;15682;56.742;38.866;2023-02-17T07:59:25;100410.0;;;-3.8;82.1
28456;BME280;15682;56.742;38.866;2023-02-17T08:01:25;100410.0;;;-3.6;82.0
28456;BME280;15682;56.742;38.866;2023-02-17T08:03:25;100410.0;;;-3.7;82.0
28456;BME280;15682;56.742;38.866;2023-02-17T08:05:25;100410.0;;;-3.6;82.0
28456;BME280;15682;56.742;38.866;2023-02-17T08:07:25;100400.0;;;-3.5;81.5
28456;BME280;15682;56.742;38.866;2023-02-17T08:09:25;100400.0;;;-3.5;81.5
28456;BME280;15682;56.742;38.866;2023-02-17T08:11:24;100400.0;;;-3.4;81.2
28456;BME280;15682;56.742;38.866;2023-02-17T08:13:26;100400.0;;;-3.1;80.3
28456;BME280;15682;56.742;38.866;2023-02-17T08:15:24;100400.0;;;-3.2;80.8
28456;BME280;15682;56.742;38.866;2023-02-17T08:17:24;100400.0;;;-3.3;80.3
28456;BME280;15682;56.742;38.866;2023-02-17T08:19:24;100400.0;;;-3.3;80.9
28456;BME280;15682;56.742;38.866;2023-02-17T08:21:25;100400.0;;;-3.1;80.2
28456;BME280;15682;56.742;38.866;2023-02-17T08:23:24;100390.0;;;-3.5;81.0
28456;BME280;15682;56.742;38.866;2023-02-17T08:25:23;100390.0;;;-3.9;81.8
28456;BME280;15682;56.742;38.866;2023-02-17T08:27:24;100380.0;;;-4.1;83.1
28456;BME280;15682;56.742;38.866;2023-02-17T08:29:23;100380.0;;;-4.1;83.1
28456;BME280;15682;56.742;38.866;2023-02-17T08:31:25;100380.0;;;-4.4;83.6
28456;BME280;15682;56.742;38.866;2023-02-17T08:33:23;100380.0;;;-4.4;84.3
28456;BME280;15682;56.742;38.866;2023-02-17T08:35:23;100380.0;;;-4.2;83.7
28456;BME280;15682;56.742;38.866;2023-02-17T08:37:23;100380.0;;;-4.2;83.7
28456;BME280;15682;56.742;38.866;2023-02-17T08:39:22;100380.0;;;-4.2;83.7
28456;BME280;15682;56.742;38.866;2023-02-17T08:41:25;100380.0;;;-4.3;84.3
28456;BME280;15682;56.742;38.866;2023-02-17T08:43:22;100380.0;;;-4.2;83.6
28456;BME280;15682;56.742;38.866;2023-02-17T08:45:22;100380.0;;;-3.9;82.8
28456;BME280;15682;56.742;38.866;2023-02-17T08:47:22;100380.0;;;-4.0;82.8
28456;BME280;15682;56.742;38.866;2023-02-17T08:49:24;100380.0;;;-4.0;82.1
28456;BME280;15682;56.742;38.866;2023-02-17T08:51:23;100370.0;;;-3.9;82.1
28456;BME280;15682;56.742;38.866;2023-02-17T08:53:21;100370.0;;;-3.8;81.4
28456;BME280;15682;56.742;38.866;2023-02-17T08:55:21;100360.0;;;-3.8;82.3
28456;BME280;15682;56.742;38.866;2023-02-17T08:57:21;100360.0;;;-3.8;82.3
28456;BME280;15682;56.742;38.866;2023-02-17T08:59:21;100360.0;;;-3.7;82.3
28456;BME280;15682;56.742;38.866;2023-02-17T09:01:21;100350.0;;;-3.7;82.1
28456;BME280;15682;56.742;38.866;2023-02-17T09:03:20;100350.0;;;-3.8;82.1
28456;BME280;15682;56.742;38.866;2023-02-17T09:05:21;100350.0;;;-3.8;82.6
28456;BME280;15682;56.742;38.866;2023-02-17T09:07:20;100350.0;;;-4.0;82.6
28456;BME280;15682;56.742;38.866;2023-02-17T09:09:22;100340.0;;;-3.7;82.6
28456;BME280;15682;56.742;38.866;2023-02-17T09:11:20;100340.0;;;-3.9;81.8
28456;BME280;15682;56.742;38.866;2023-02-17T09:13:20;100340.0;;;-3.9;82.4
28456;BME280;15682;56.742;38.866;2023-02-17T09:15:19;100340.0;;;-3.9;82.4
28456;BME280;15682;56.742;38.866;2023-02-17T09:17:19;100340.0;;;-3.9;82.4
28456;BME280;15682;56.742;38.866;2023-02-17T09:19:19;100340.0;;;-4.1;82.4
28456;BME280;15682;56.742;38.866;2023-02-17T09:21:20;100340.0;;;-4.0;82.4
28456;BME280;15682;56.742;38.866;2023-02-17T09:23:19;100340.0;;;-4.2;82.6
28456;BME280;15682;56.742;38.866;2023-02-17T09:25:18;100330.0;;;-4.1;82.9
28456;BME280;15682;56.742;38.866;2023-02-17T09:27:18;100330.0;;;-4.0;82.9
28456;BME280;15682;56.742;38.866;2023-02-17T09:29:18;100330.0;;;-4.1;82.9
28456;BME280;15682;56.742;38.866;2023-02-17T09:31:19;100330.0;;;-4.0;82.1
28456;BME280;15682;56.742;38.866;2023-02-17T09:33:18;100330.0;;;-3.8;82.1
28456;BME280;15682;56.742;38.866;2023-02-17T09:35:18;100330.0;;;-3.9;81.5
28456;BME280;15682;56.742;38.866;2023-02-17T09:37:18;100320.0;;;-3.8;81.5
28456;BME280;15682;56.742;38.866;2023-02-17T09:39:17;100320.0;;;-3.6;81.5
28456;BME280;15682;56.742;38.866;2023-02-17T09:41:20;100320.0;;;-3.6;80.7
28456;BME280;15682;56.742;38.866;2023-02-17T09:43:19;100320.0;;;-3.4;80.7
28456;BME280;15682;56.742;38.866;2023-02-17T09:45:20;100320.0;;;-3.4;80.2
28456;BME280;15682;56.742;38.866;2023-02-17T09:47:21;100320.0;;;-3.4;80.8
28456;BME280;15682;56.742;38.866;2023-02-17T09:49:19;100320.0;;;-3.5;80.2
28456;BME280;15682;56.742;38.866;2023-02-17T09:51:21;100320.0;;;-3.7;80.8
28456;BME280;15682;56.742;38.866;2023-02-17T09:53:22;100320.0;;;-3.7;80.8
28456;BME280;15682;56.742;38.866;2023-02-17T09:55:19;100310.0;;;-3.9;80.8
28456;BME280;15682;56.742;38.866;2023-02-17T09:57:17;100310.0;;;-3.7;81.3
28456;BME280;15682;56.742;38.866;2023-02-17T09:59:19;100310.0;;;-3.5;80.5
28456;BME280;15682;56.742;38.866;2023-02-17T10:01:18;100300.0;;;-3.3;80.5
28456;BME280;15682;56.742;38.866;2023-02-17T10:03:19;100300.0;;;-3.4;79.9
28456;BME280;15682;56.742;38.866;2023-02-17T10:05:18;100290.0;;;-3.4;79.9
28456;BME280;15682;56.742;38.866;2023-02-17T10:07:18;100290.0;;;-3.4;79.9
28456;BME280;15682;56.742;38.866;2023-02-17T10:09:18;100290.0;;;-3.4;79.9
28456;BME280;15682;56.742;38.866;2023-02-17T10:11:21;100290.0;;;-3.5;79.9
28456;BME280;15682;56.742;38.866;2023-02-17T10:13:17;100290.0;;;-3.3;80.2
28456;BME280;15682;56.742;38.866;2023-02-17T10:15:16;100280.0;;;-3.3;79.2
28456;BME280;15682;56.742;38.866;2023-02-17T10:17:19;100280.0;;;-3.3;79.2
28456;BME280;15682;56.742;38.866;2023-02-17T10:19:17;100270.0;;;-3.3;79.2
28456;BME280;15682;56.742;38.866;2023-02-17T10:21:16;100270.0;;;-3.2;79.2
28456;BME280;15682;56.742;38.866;2023-02-17T10:23:16;100260.0;;;-3.2;79.5
28456;BME280;15682;56.742;38.866;2023-02-17T10:25:17;100260.0;;;-3.1;79.5
28456;BME280;15682;56.742;38.866;2023-02-17T10:27:22;100260.0;;;-3.3;79.5
28456;BME280;15682;56.742;38.866;2023-02-17T10:29:19;100260.0;;;-3.3;79.5
28456;BME280;15682;56.742;38.866;2023-02-17T10:31:22;100260.0;;;-3.2;79.5
28456;BME280;15682;56.742;38.866;2023-02-17T10:33:17;100250.0;;;-3.2;79.2
28456;BME280;15682;56.742;38.866;2023-02-17T10:35:13;100250.0;;;-3.4;79.2
28456;BME280;15682;56.742;38.866;2023-02-17T10:37:14;100250.0;;;-3.5;79.8
28456;BME280;15682;56.742;38.866;2023-02-17T10:39:14;100240.0;;;-3.2;79.8
28456;BME280;15682;56.742;38.866;2023-02-17T10:41:14;100240.0;;;-3.1;78.6
28456;BME280;15682;56.742;38.866;2023-02-17T10:43:15;100240.0;;;-3.0;78.4